createdAt,value
2023-06-30T00:01:57.263Z,6.68
2023-06-30T00:07:02.435Z,5.05
2023-06-30T00:12:07.702Z,4.45
2023-06-30T00:17:11.140Z,8.18
2023-06-30T00:22:16.026Z,3.17
2023-06-30T00:27:19.404Z,7.13
2023-06-30T00:32:23.023Z,4.43
2023-06-30T00:37:29.285Z,7.28
2023-06-30T00:42:32.734Z,3.67
2023-06-30T00:47:36.391Z,6.47
2023-06-30T00:52:43.370Z,4.35
2023-06-30T00:57:46.843Z,5.65
2023-06-30T01:03:03.721Z,5.85
2023-06-30T01:08:16.879Z,6.68
2023-06-30T01:13:20.892Z,4.60
2023-06-30T01:18:24.894Z,4.32
2023-06-30T01:23:37.059Z,4.38
2023-06-30T01:28:40.622Z,4.97
2023-06-30T01:33:44.667Z,5.55
2023-06-30T01:38:49.441Z,5.93
2023-06-30T01:43:53.732Z,4.82
2023-06-30T01:48:57.776Z,7.57
2023-06-30T01:54:02.960Z,5.60
2023-06-30T01:59:06.376Z,5.35
2023-06-30T02:04:10.569Z,5.32
2023-06-30T02:09:15.590Z,6.43
2023-06-30T02:19:25.038Z,8.05
2023-06-30T02:24:29.882Z,4.60
2023-06-30T02:29:33.407Z,7.00
2023-06-30T02:34:36.906Z,3.67
2023-06-30T02:39:43.826Z,6.70
2023-06-30T02:44:47.289Z,4.75
2023-06-30T02:49:50.813Z,5.03
2023-06-30T02:54:56.470Z,7.25
2023-06-30T02:59:59.905Z,8.00
2023-06-30T03:05:03.733Z,7.75
2023-06-30T03:10:11.114Z,5.05
2023-06-30T03:15:14.549Z,9.37
2023-06-30T03:20:18.185Z,6.75
2023-06-30T03:25:23.714Z,5.82
2023-06-30T03:30:27.138Z,5.78
2023-06-30T03:35:31.374Z,7.53
2023-06-30T03:40:36.384Z,7.13
2023-06-30T03:45:40.168Z,5.30
2023-06-30T03:50:44.586Z,4.70
2023-06-30T03:55:49.478Z,6.38
2023-06-30T04:00:52.888Z,8.40
2023-06-30T04:05:56.473Z,6.25
2023-06-30T04:11:01.246Z,5.88
2023-06-30T04:16:04.956Z,7.75
2023-06-30T04:21:08.448Z,6.10
2023-06-30T04:26:13.250Z,9.60
2023-06-30T04:31:16.800Z,9.48
2023-06-30T04:36:21.506Z,4.97
2023-06-30T04:41:26.682Z,8.48
2023-06-30T04:46:31.217Z,6.05
2023-06-30T04:51:34.996Z,8.43
2023-06-30T04:56:39.799Z,8.18
2023-06-30T05:01:43.175Z,7.60
2023-06-30T05:06:47.550Z,6.57
2023-06-30T05:11:52.797Z,7.05
2023-06-30T05:16:56.398Z,6.47
2023-06-30T05:21:59.948Z,6.50
2023-06-30T05:27:05.700Z,7.18
2023-06-30T05:32:10.359Z,6.65
2023-06-30T05:37:13.882Z,6.15
2023-06-30T05:42:18.618Z,6.95
2023-06-30T05:47:22.092Z,7.68
2023-06-30T05:52:26.324Z,6.22
2023-06-30T05:57:31.188Z,5.90
2023-06-30T06:02:34.696Z,8.00
2023-06-30T06:07:39.029Z,6.55
2023-06-30T06:12:43.950Z,7.60
2023-06-30T06:17:47.385Z,8.35
2023-06-30T06:22:50.776Z,14.15
2023-06-30T06:27:55.508Z,12.65
2023-06-30T06:32:58.936Z,9.55
2023-06-30T06:38:02.465Z,9.32
2023-06-30T06:43:07.227Z,6.97
2023-06-30T06:48:23.561Z,9.18
2023-06-30T06:53:30.824Z,6.87
2023-06-30T07:03:41.224Z,14.83
2023-06-30T07:08:44.757Z,15.10
2023-06-30T07:13:49.595Z,9.90
2023-06-30T07:18:53.064Z,12.10
2023-06-30T07:23:56.561Z,9.77
2023-06-30T07:29:01.339Z,9.88
2023-06-30T07:34:04.780Z,12.60
2023-06-30T07:39:08.174Z,13.57
2023-06-30T07:44:13.274Z,16.13
2023-06-30T07:49:16.681Z,16.67
2023-06-30T07:54:20.781Z,12.68
2023-06-30T07:59:25.717Z,13.48
2023-06-30T08:04:29.557Z,18.05
2023-06-30T08:09:34.035Z,16.40
2023-06-30T08:14:38.824Z,11.73
2023-06-30T08:19:48.187Z,9.95
2023-06-30T08:24:53.152Z,15.57
2023-06-30T08:29:57.938Z,10.35
2023-06-30T08:35:01.351Z,42.85
2023-06-30T08:40:06.249Z,34.65
2023-06-30T08:45:12.565Z,23.83
2023-06-30T08:50:16.568Z,15.40
2023-06-30T08:55:20.164Z,19.58
2023-06-30T09:00:25.474Z,10.10
2023-06-30T09:05:30.878Z,6.68
2023-06-30T09:10:38.343Z,7.38
2023-06-30T09:15:44.371Z,7.35
2023-06-30T09:20:47.981Z,7.05
2023-06-30T09:25:54.681Z,6.65
2023-06-30T09:31:03.167Z,11.20
2023-06-30T09:36:07.232Z,6.40
2023-06-30T09:41:22.457Z,4.60
2023-06-30T09:46:29.583Z,4.80
2023-06-30T09:51:35.549Z,5.35
2023-06-30T09:56:43.059Z,4.43
2023-06-30T10:01:47.963Z,5.03
2023-06-30T10:06:54.149Z,6.32
2023-06-30T10:12:00.097Z,3.92
2023-06-30T10:17:07.661Z,4.72
2023-06-30T10:22:11.318Z,5.03
2023-06-30T10:27:19.591Z,6.13
2023-06-30T10:32:24.637Z,6.97
2023-06-30T10:37:29.155Z,6.95
2023-06-30T10:42:39.080Z,6.72
2023-06-30T10:47:44.141Z,8.70
2023-06-30T10:52:53.057Z,6.82
2023-06-30T10:57:58.622Z,4.60
2023-06-30T11:03:07.513Z,7.82
2023-06-30T11:08:24.304Z,9.70
2023-06-30T11:13:39.161Z,5.37
2023-06-30T11:18:45.653Z,5.80
2023-06-30T11:23:49.145Z,5.57
2023-06-30T11:28:54.293Z,6.00
2023-06-30T11:34:00.679Z,5.13
2023-06-30T11:39:04.145Z,6.15
2023-06-30T11:44:08.100Z,7.63
2023-06-30T11:49:13.239Z,6.63
2023-06-30T11:54:16.706Z,6.20
2023-06-30T11:59:20.117Z,5.95
2023-06-30T12:04:36.463Z,7.63
2023-06-30T12:09:42.821Z,5.87
2023-06-30T12:14:46.839Z,8.05
2023-06-30T12:19:53.308Z,5.07
2023-06-30T12:24:57.988Z,10.63
2023-06-30T12:30:01.575Z,5.65
2023-06-30T12:35:09.417Z,5.38
2023-06-30T12:40:15.054Z,5.43
2023-06-30T12:45:18.656Z,7.60
2023-06-30T12:50:23.832Z,5.72
2023-06-30T12:55:29.266Z,5.32
2023-06-30T13:00:32.833Z,6.30
2023-06-30T13:05:37.638Z,5.53
2023-06-30T13:10:41.088Z,5.05
2023-06-30T13:15:44.903Z,5.70
2023-06-30T13:20:49.869Z,6.20
2023-06-30T13:25:53.367Z,6.57
2023-06-30T13:30:56.827Z,6.68
2023-06-30T13:36:02.243Z,6.55
2023-06-30T13:41:05.690Z,6.57
2023-06-30T13:46:09.145Z,5.43
2023-06-30T13:51:13.960Z,4.93
2023-06-30T13:56:17.490Z,4.75
2023-06-30T14:01:21.307Z,4.28
2023-06-30T14:06:26.146Z,5.65
2023-06-30T14:11:29.572Z,4.63
2023-06-30T14:16:36.014Z,4.25
2023-06-30T14:21:41.065Z,4.68
2023-06-30T14:26:44.459Z,5.22
2023-06-30T14:31:48.203Z,4.18
2023-06-30T14:36:53.095Z,5.50
2023-06-30T14:42:02.160Z,3.70
2023-06-30T14:47:06.548Z,7.30
2023-06-30T14:52:11.436Z,5.30
2023-06-30T14:57:14.867Z,4.95
2023-06-30T15:02:18.753Z,3.85
2023-06-30T15:07:23.747Z,4.65
2023-06-30T15:12:27.192Z,4.15
2023-06-30T15:17:30.803Z,4.68
2023-06-30T15:22:35.784Z,3.50
2023-06-30T15:27:39.175Z,4.22
2023-06-30T15:32:42.773Z,6.82
2023-06-30T15:37:47.684Z,4.75
2023-06-30T15:42:51.136Z,5.60
2023-06-30T15:47:57.393Z,3.33
2023-06-30T15:53:02.230Z,3.13
2023-06-30T15:58:05.660Z,7.20
2023-06-30T16:03:09.149Z,7.45
2023-06-30T16:08:14.096Z,3.45
2023-06-30T16:13:17.673Z,3.75
2023-06-30T16:18:21.654Z,5.85
2023-06-30T16:23:26.474Z,3.30
2023-06-30T16:28:29.927Z,2.92
2023-06-30T16:33:33.827Z,4.25
2023-06-30T16:38:40.573Z,4.88
2023-06-30T16:43:43.964Z,6.47
2023-06-30T16:48:47.387Z,3.25
2023-06-30T16:53:52.205Z,5.90
2023-06-30T16:58:55.565Z,4.47
2023-06-30T17:03:58.991Z,4.88
2023-06-30T17:09:03.806Z,3.35
2023-06-30T17:14:07.531Z,4.60
2023-06-30T17:19:10.990Z,5.05
2023-06-30T17:24:15.865Z,5.80
2023-06-30T17:29:19.332Z,4.05
2023-06-30T17:34:22.770Z,5.82
2023-06-30T17:39:27.570Z,5.50
2023-06-30T17:44:32.168Z,8.77
2023-06-30T17:49:35.989Z,9.70
2023-06-30T17:54:41.013Z,7.35
2023-06-30T17:59:44.416Z,10.05
2023-06-30T18:04:48.262Z,9.77
2023-06-30T18:09:53.174Z,7.63
2023-06-30T18:14:56.642Z,6.90
2023-06-30T18:20:00.135Z,9.27
2023-06-30T18:25:05.786Z,7.50
2023-06-30T18:30:11.053Z,7.50
2023-06-30T18:35:14.462Z,6.25
2023-06-30T18:40:19.347Z,5.85
2023-06-30T18:45:22.898Z,3.97
2023-06-30T18:50:26.299Z,5.10
2023-06-30T18:55:31.063Z,4.60
2023-06-30T19:00:34.972Z,7.45
2023-06-30T19:05:38.380Z,7.47
2023-06-30T19:10:43.152Z,5.35
2023-06-30T19:15:47.212Z,5.70
2023-06-30T19:20:50.831Z,7.18
2023-06-30T19:25:55.687Z,4.80
2023-06-30T19:30:59.266Z,4.60
2023-06-30T19:36:03.119Z,8.10
2023-06-30T19:41:08.043Z,6.05
2023-06-30T19:46:11.837Z,4.35
2023-06-30T19:51:15.277Z,5.07
2023-06-30T19:56:20.067Z,16.08
2023-06-30T20:01:26.813Z,6.18
2023-06-30T20:06:30.361Z,8.20
2023-06-30T20:11:35.215Z,5.55
2023-06-30T20:16:38.914Z,4.65
2023-06-30T20:21:42.369Z,6.35
2023-06-30T20:26:47.166Z,5.15
2023-06-30T20:31:50.558Z,8.70
2023-06-30T20:36:53.968Z,6.35
2023-06-30T20:41:58.787Z,5.57
2023-06-30T20:47:02.388Z,4.38
2023-06-30T20:52:09.238Z,5.57
2023-06-30T20:57:14.085Z,5.50
2023-06-30T21:02:17.540Z,5.07
2023-06-30T21:07:21.035Z,4.53
2023-06-30T21:12:25.897Z,4.55
2023-06-30T21:17:29.365Z,6.03
2023-06-30T21:22:32.980Z,5.75
2023-06-30T21:27:37.781Z,4.93
2023-06-30T21:32:41.445Z,4.38
2023-06-30T21:37:44.928Z,10.50
2023-06-30T21:42:49.741Z,5.15
2023-06-30T21:47:53.163Z,6.80
2023-06-30T21:52:56.597Z,3.92
2023-06-30T21:58:04.476Z,7.43
2023-06-30T22:03:12.435Z,5.38
2023-06-30T22:08:16.138Z,5.57
2023-06-30T22:13:21.063Z,6.10
2023-06-30T22:18:24.581Z,7.00
2023-06-30T22:23:29.321Z,6.38
2023-06-30T22:28:34.097Z,5.85
2023-06-30T22:33:38.656Z,4.25
2023-06-30T22:38:42.073Z,5.65
2023-06-30T22:43:47.765Z,6.47
2023-06-30T22:48:51.151Z,4.47
2023-06-30T22:53:54.543Z,4.18
2023-06-30T22:58:59.358Z,4.18
2023-06-30T23:04:02.961Z,5.20
2023-06-30T23:09:06.733Z,6.70
2023-06-30T23:14:11.578Z,6.43
2023-06-30T23:19:16.949Z,6.25
2023-06-30T23:24:23.847Z,7.45
2023-06-30T23:29:29.803Z,5.38
2023-06-30T23:34:36.097Z,7.68
2023-06-30T23:39:40.106Z,4.25
2023-06-30T23:44:44.888Z,4.80
2023-06-30T23:49:48.948Z,6.18
2023-06-30T23:54:52.397Z,5.75
2023-06-30T23:59:57.654Z,5.88
